New Haven, Wisconsin
Current Conditions -  °F | °C
As of 2:35 PM on Wednesday 26 Nov 2014 (Local Time) from KRNH Reporting Station
Overcast Overcast  
Wind Chill: 16°   Ceiling: 6500
Heat Index: 26°   Visibility: 10mi
Dew Point: 18°   Wind: 10mph
Humidity: 74%   Direction: 350°N
Pressure: 30.19"   Gusts: NA
Location:  45.2417°N, 92.2543°W
Report Text: KRNH 262035Z AUTO 35009KT 10SM SCT019 BKN065 OVC080 M03/M08 A3019 RMK AO2 T10351076
Loading
Personal Weather Stations






























Interactive Weather Map New forecast layout! Learn more

10-Day Weather Forecast

Advertisements
Track Severe Weather on mobile